createdAt,value
2023-03-20T00:02:03.239Z,6.43
2023-03-20T00:04:31.478Z,6.42
2023-03-20T00:06:59.505Z,6.41
2023-03-20T00:09:28.879Z,6.41
2023-03-20T00:11:57.386Z,6.40
2023-03-20T00:14:26.352Z,6.39
2023-03-20T00:16:54.407Z,6.35
2023-03-20T00:19:24.485Z,6.38
2023-03-20T00:21:54.337Z,6.39
2023-03-20T00:24:23.188Z,6.36
2023-03-20T00:26:54.279Z,6.38
2023-03-20T00:29:24.768Z,6.35
2023-03-20T00:31:54.005Z,6.37
2023-03-20T00:34:25.920Z,6.37
2023-03-20T00:36:54.851Z,6.35
2023-03-20T00:39:23.767Z,6.35
2023-03-20T00:41:56.054Z,6.35
2023-03-20T00:44:27.104Z,6.31
2023-03-20T00:46:57.602Z,6.37
2023-03-20T00:49:29.090Z,6.36
2023-03-20T00:51:58.254Z,6.36
2023-03-20T00:54:26.669Z,6.37
2023-03-20T00:57:00.606Z,6.37
2023-03-20T00:59:32.369Z,6.36
2023-03-20T01:02:01.642Z,6.39
2023-03-20T01:04:37.442Z,6.36
2023-03-20T01:07:05.703Z,6.38
2023-03-20T01:09:34.121Z,6.36
2023-03-20T01:12:04.350Z,6.38
2023-03-20T01:14:32.530Z,6.37
2023-03-20T01:17:00.563Z,6.35
2023-03-20T01:19:28.652Z,6.40
2023-03-20T01:21:56.837Z,6.37
2023-03-20T01:24:24.871Z,6.40
2023-03-20T01:26:54.819Z,6.41
2023-03-20T01:29:27.266Z,6.41
2023-03-20T01:31:55.884Z,6.40
2023-03-20T01:34:27.878Z,6.38
2023-03-20T01:36:59.282Z,6.39
2023-03-20T01:39:33.659Z,6.38
2023-03-20T01:42:03.498Z,6.39
2023-03-20T01:44:37.607Z,6.38
2023-03-20T01:47:16.961Z,6.35
2023-03-20T01:50:23.391Z,6.30
2023-03-20T01:53:01.784Z,6.30
2023-03-20T01:55:31.077Z,6.29
2023-03-20T01:58:05.569Z,6.27
2023-03-20T02:00:38.223Z,6.28
2023-03-20T02:03:11.961Z,6.27
2023-03-20T02:05:59.897Z,6.26
2023-03-20T02:08:43.042Z,6.25
2023-03-20T02:11:11.962Z,6.24
2023-03-20T02:13:41.264Z,6.22
2023-03-20T02:16:13.067Z,6.20
2023-03-20T02:19:01.391Z,6.25
2023-03-20T02:21:58.415Z,6.28
2023-03-20T02:24:50.723Z,6.26
2023-03-20T02:27:26.514Z,6.28
2023-03-20T02:30:26.774Z,6.26
2023-03-20T02:33:33.806Z,6.27
2023-03-20T02:36:27.233Z,6.21
2023-03-20T02:39:15.106Z,6.21
2023-03-20T02:41:49.400Z,6.16
2023-03-20T02:44:24.337Z,6.13
2023-03-20T02:47:02.853Z,6.08
2023-03-20T02:49:55.348Z,5.97
2023-03-20T02:52:35.159Z,5.90
2023-03-20T02:55:16.279Z,5.84
2023-03-20T02:57:51.679Z,5.75
2023-03-20T03:00:28.480Z,5.69
2023-03-20T03:03:05.937Z,5.62
2023-03-20T03:05:39.538Z,5.55
2023-03-20T03:08:10.928Z,5.45
2023-03-20T03:10:45.339Z,5.35
2023-03-20T03:13:18.307Z,5.33
2023-03-20T03:15:49.612Z,5.31
2023-03-20T03:18:21.518Z,5.24
2023-03-20T03:20:53.376Z,5.19
2023-03-20T03:23:29.425Z,5.18
2023-03-20T03:26:01.098Z,5.14
2023-03-20T03:28:37.165Z,5.11
2023-03-20T03:31:08.265Z,5.04
2023-03-20T03:33:40.989Z,5.01
2023-03-20T03:36:18.629Z,4.95
2023-03-20T03:38:55.064Z,4.92
2023-03-20T03:41:31.869Z,4.89
2023-03-20T03:44:09.097Z,4.93
2023-03-20T03:46:44.795Z,4.90
2023-03-20T03:49:17.906Z,4.90
2023-03-20T03:51:51.432Z,4.90
2023-03-20T03:54:23.907Z,4.90
2023-03-20T03:57:33.069Z,4.83
2023-03-20T04:00:05.184Z,4.83
2023-03-20T04:02:43.488Z,4.79
2023-03-20T04:05:13.494Z,4.78
2023-03-20T04:07:46.084Z,4.75
2023-03-20T04:10:14.667Z,4.70
2023-03-20T04:12:46.408Z,4.70
2023-03-20T04:15:16.662Z,4.70
2023-03-20T04:17:45.187Z,4.67
2023-03-20T04:20:16.184Z,4.95
2023-03-20T04:22:44.448Z,5.27
2023-03-20T04:25:18.732Z,5.64
2023-03-20T04:27:50.269Z,6.03
2023-03-20T04:30:54.281Z,6.47
2023-03-20T04:33:42.109Z,6.85
2023-03-20T04:36:28.941Z,7.29
2023-03-20T04:38:57.851Z,7.69
2023-03-20T04:41:26.861Z,8.14
2023-03-20T04:43:59.369Z,8.63
2023-03-20T04:46:27.655Z,9.13
2023-03-20T04:48:56.086Z,9.62
2023-03-20T04:51:28.471Z,10.00
2023-03-20T04:53:56.671Z,10.45
2023-03-20T04:56:24.747Z,10.90
2023-03-20T04:58:55.113Z,11.43
2023-03-20T05:01:25.543Z,12.03
2023-03-20T05:04:00.681Z,12.61
2023-03-20T05:06:33.105Z,13.11
2023-03-20T05:09:02.201Z,13.53
2023-03-20T05:11:32.569Z,13.93
2023-03-20T05:14:06.973Z,14.43
2023-03-20T05:16:36.669Z,14.99
2023-03-20T05:19:22.626Z,15.60
2023-03-20T05:21:50.991Z,15.98
2023-03-20T05:24:33.005Z,16.38
2023-03-20T05:27:09.667Z,16.41
2023-03-20T05:29:52.579Z,16.26
2023-03-20T05:32:52.887Z,15.58
2023-03-20T05:35:30.385Z,15.31
2023-03-20T05:38:30.876Z,15.23
2023-03-20T05:41:11.199Z,14.81
2023-03-20T05:43:53.194Z,14.65
2023-03-20T05:46:47.431Z,14.56
2023-03-20T05:49:28.967Z,14.55
2023-03-20T05:52:18.162Z,14.70
2023-03-20T05:55:05.914Z,15.03
2023-03-20T05:57:57.361Z,15.55
2023-03-20T06:00:48.642Z,16.42
2023-03-20T06:03:35.808Z,17.43
2023-03-20T06:06:12.575Z,18.41
2023-03-20T06:08:41.854Z,18.85
2023-03-20T06:11:10.624Z,19.46
2023-03-20T06:13:39.747Z,19.08
2023-03-20T06:16:09.224Z,18.09
2023-03-20T06:18:39.350Z,16.92
2023-03-20T06:21:09.461Z,16.17
2023-03-20T06:23:39.048Z,15.52
2023-03-20T06:26:08.365Z,15.07
2023-03-20T06:28:48.981Z,14.97
2023-03-20T06:31:17.394Z,15.92
2023-03-20T06:33:45.858Z,17.28
2023-03-20T06:36:14.245Z,18.95
2023-03-20T06:38:46.011Z,20.45
2023-03-20T06:41:33.360Z,21.20
2023-03-20T06:44:06.271Z,21.22
2023-03-20T06:46:54.663Z,20.55
2023-03-20T06:49:23.037Z,20.28
2023-03-20T06:51:51.078Z,19.32
2023-03-20T06:54:26.897Z,18.01
2023-03-20T06:56:56.313Z,17.03
2023-03-20T06:59:24.678Z,16.24
2023-03-20T07:01:57.533Z,15.63
2023-03-20T07:04:27.695Z,15.12
2023-03-20T07:06:59.841Z,14.70
2023-03-20T07:09:29.460Z,14.56
2023-03-20T07:11:57.604Z,14.82
2023-03-20T07:14:26.191Z,14.48
2023-03-20T07:17:05.584Z,14.33
2023-03-20T07:19:36.917Z,15.77
2023-03-20T07:22:09.089Z,18.33
2023-03-20T07:24:43.892Z,19.73
2023-03-20T07:27:13.536Z,21.64
2023-03-20T07:29:41.656Z,20.33
2023-03-20T07:32:14.262Z,18.76
2023-03-20T07:34:50.234Z,17.58
2023-03-20T07:37:20.689Z,16.50
2023-03-20T07:40:00.331Z,15.61
2023-03-20T07:42:34.051Z,14.92
2023-03-20T07:45:20.657Z,14.38
2023-03-20T07:47:49.269Z,13.80
2023-03-20T07:50:17.960Z,13.39
2023-03-20T07:52:48.539Z,12.96
2023-03-20T07:55:19.369Z,12.53
2023-03-20T07:57:49.560Z,12.12
2023-03-20T08:00:18.905Z,11.81
2023-03-20T08:02:47.127Z,11.52
2023-03-20T08:05:15.477Z,11.27
2023-03-20T08:07:43.866Z,11.18
2023-03-20T08:10:12.597Z,11.71
2023-03-20T08:12:42.203Z,11.48
2023-03-20T08:15:11.343Z,11.30
2023-03-20T08:17:39.603Z,11.07
2023-03-20T08:20:08.417Z,10.99
2023-03-20T08:22:36.471Z,10.95
2023-03-20T08:25:04.832Z,10.84
2023-03-20T08:27:33.285Z,10.81
2023-03-20T08:30:02.925Z,10.79
2023-03-20T08:32:31.429Z,10.85
2023-03-20T08:34:59.714Z,10.95
2023-03-20T08:37:27.831Z,11.08
2023-03-20T08:39:55.902Z,11.13
2023-03-20T08:42:24.085Z,11.36
2023-03-20T08:44:52.555Z,11.59
2023-03-20T08:47:22.422Z,11.71
2023-03-20T08:49:51.653Z,11.86
2023-03-20T08:52:19.845Z,11.87
2023-03-20T08:54:48.058Z,11.89
2023-03-20T08:57:16.314Z,12.07
2023-03-20T08:59:44.466Z,12.30
2023-03-20T09:02:13.638Z,12.53
2023-03-20T09:04:43.196Z,12.68
2023-03-20T09:07:11.364Z,12.73
2023-03-20T09:09:39.296Z,12.66
2023-03-20T09:12:07.863Z,12.58
2023-03-20T09:14:36.506Z,12.47
2023-03-20T09:17:04.626Z,12.62
2023-03-20T09:19:33.123Z,12.78
2023-03-20T09:22:02.615Z,12.92
2023-03-20T09:24:31.515Z,12.99
2023-03-20T09:27:03.098Z,12.86
2023-03-20T09:29:31.740Z,12.92
2023-03-20T09:31:59.729Z,13.02
2023-03-20T09:34:27.839Z,13.09
2023-03-20T09:36:56.095Z,13.06
2023-03-20T09:39:25.857Z,13.10
2023-03-20T09:41:57.383Z,12.96
2023-03-20T09:44:42.723Z,12.83
2023-03-20T09:47:21.357Z,12.73
2023-03-20T09:50:02.644Z,12.55
2023-03-20T09:52:33.324Z,12.40
2023-03-20T09:55:08.131Z,12.40
2023-03-20T09:57:40.535Z,12.42
2023-03-20T10:00:14.314Z,12.51
2023-03-20T10:02:50.497Z,12.65
2023-03-20T10:05:24.093Z,12.76
2023-03-20T10:07:53.770Z,12.68
2023-03-20T10:10:28.789Z,12.78
2023-03-20T10:13:11.624Z,12.60
2023-03-20T10:15:47.988Z,12.48
2023-03-20T10:18:22.214Z,12.48
2023-03-20T10:20:56.514Z,12.23
2023-03-20T10:23:33.572Z,11.97
2023-03-20T10:26:07.854Z,11.76
2023-03-20T10:28:40.701Z,11.63
2023-03-20T10:31:17.108Z,11.46
2023-03-20T10:33:57.323Z,11.25
2023-03-20T10:36:42.814Z,11.08
2023-03-20T10:39:20.711Z,10.99
2023-03-20T10:41:54.863Z,10.94
2023-03-20T10:44:31.101Z,10.87
2023-03-20T10:47:02.942Z,10.83
2023-03-20T10:49:37.974Z,10.81
2023-03-20T10:52:15.541Z,10.77
2023-03-20T10:54:48.065Z,10.66
2023-03-20T10:57:23.795Z,10.60
2023-03-20T10:59:52.904Z,10.58
2023-03-20T11:02:23.441Z,10.56
2023-03-20T11:04:52.066Z,10.56
2023-03-20T11:07:25.513Z,10.64
2023-03-20T11:10:10.535Z,10.73
2023-03-20T11:12:42.580Z,10.74
2023-03-20T11:15:23.887Z,10.77
2023-03-20T11:17:59.162Z,10.93
2023-03-20T11:20:33.643Z,10.99
2023-03-20T11:23:05.615Z,11.00
2023-03-20T11:25:37.782Z,10.97
2023-03-20T11:28:32.213Z,11.10
2023-03-20T11:31:04.807Z,11.16
2023-03-20T11:33:37.652Z,11.25
2023-03-20T11:36:13.806Z,11.27
2023-03-20T11:38:46.245Z,11.34
2023-03-20T11:41:27.614Z,11.38
2023-03-20T11:43:56.959Z,11.43
2023-03-20T11:46:26.458Z,11.50
2023-03-20T11:49:07.447Z,11.55
2023-03-20T11:51:38.167Z,11.62
2023-03-20T11:54:08.949Z,11.65
2023-03-20T11:56:37.692Z,11.72
2023-03-20T11:59:15.715Z,11.76
2023-03-20T12:01:47.304Z,11.82
2023-03-20T12:04:18.159Z,11.90
2023-03-20T12:06:50.714Z,11.94
2023-03-20T12:09:29.026Z,12.02
2023-03-20T12:12:01.588Z,12.03
2023-03-20T12:14:39.324Z,12.01
2023-03-20T12:17:27.114Z,11.99
2023-03-20T12:20:01.837Z,12.06
2023-03-20T12:22:34.468Z,12.05
2023-03-20T12:25:09.600Z,12.05
2023-03-20T12:27:40.937Z,12.04
2023-03-20T12:30:17.885Z,12.07
2023-03-20T12:32:57.707Z,12.08
2023-03-20T12:35:31.415Z,12.09
2023-03-20T12:38:00.086Z,12.08
2023-03-20T12:40:36.159Z,12.08
2023-03-20T12:43:06.738Z,12.10
2023-03-20T12:45:44.238Z,12.16
2023-03-20T12:48:32.651Z,12.25
2023-03-20T12:51:07.852Z,12.32
2023-03-20T12:53:49.714Z,12.37
2023-03-20T12:56:31.075Z,12.44
2023-03-20T12:59:07.337Z,12.47
2023-03-20T13:01:42.166Z,12.48
2023-03-20T13:04:44.652Z,12.48
2023-03-20T13:07:19.548Z,12.46
2023-03-20T13:09:59.277Z,12.43
2023-03-20T13:12:37.587Z,12.41
2023-03-20T13:15:21.644Z,12.40
2023-03-20T13:17:57.493Z,12.37
2023-03-20T13:20:32.015Z,12.36
2023-03-20T13:23:09.357Z,12.32
2023-03-20T13:25:53.732Z,12.30
2023-03-20T13:28:31.225Z,12.27
2023-03-20T13:31:06.871Z,12.25
2023-03-20T13:33:48.914Z,12.22
2023-03-20T13:36:29.115Z,12.18
2023-03-20T13:39:04.729Z,12.17
2023-03-20T13:41:36.016Z,12.11
2023-03-20T13:44:07.167Z,12.05
2023-03-20T13:46:41.622Z,11.97
2023-03-20T13:49:15.926Z,11.88
2023-03-20T13:51:49.715Z,11.79
2023-03-20T13:54:32.518Z,11.67
2023-03-20T13:57:11.845Z,11.60
2023-03-20T13:59:56.185Z,11.53
2023-03-20T14:02:35.616Z,11.47
2023-03-20T14:05:12.243Z,11.43
2023-03-20T14:07:44.903Z,11.40
2023-03-20T14:10:38.216Z,11.35
2023-03-20T14:13:13.746Z,11.31
2023-03-20T14:15:55.436Z,11.27
2023-03-20T14:18:26.480Z,11.26
2023-03-20T14:20:58.746Z,11.25
2023-03-20T14:23:36.195Z,11.26
2023-03-20T14:26:11.176Z,11.24
2023-03-20T14:28:53.131Z,11.25
2023-03-20T14:31:30.587Z,11.24
2023-03-20T14:34:10.906Z,11.25
2023-03-20T14:36:48.031Z,11.25
2023-03-20T14:39:23.829Z,11.24
2023-03-20T14:42:07.039Z,11.26
2023-03-20T14:44:50.738Z,11.26
2023-03-20T14:47:27.625Z,11.28
2023-03-20T14:50:02.932Z,11.29
2023-03-20T14:52:44.339Z,11.29
2023-03-20T14:55:34.219Z,11.30
2023-03-20T14:58:50.559Z,11.33
2023-03-20T15:01:29.790Z,11.40
2023-03-20T15:04:01.114Z,11.40
2023-03-20T15:06:30.652Z,11.42
2023-03-20T15:09:06.764Z,11.44
2023-03-20T15:11:36.004Z,11.46
2023-03-20T15:14:07.840Z,11.45
2023-03-20T15:16:38.042Z,11.44
2023-03-20T15:19:18.193Z,11.46
2023-03-20T15:21:48.077Z,11.45
2023-03-20T15:24:23.438Z,11.46
2023-03-20T15:26:56.928Z,11.44
2023-03-20T15:29:25.342Z,11.42
2023-03-20T15:32:12.471Z,11.43
2023-03-20T15:34:43.174Z,11.42
2023-03-20T15:37:16.275Z,11.40
2023-03-20T15:39:47.752Z,11.38
2023-03-20T15:42:18.464Z,11.36
2023-03-20T15:44:49.342Z,11.39
2023-03-20T15:47:21.178Z,11.33
2023-03-20T15:49:54.632Z,11.27
2023-03-20T15:52:28.578Z,11.25
2023-03-20T15:55:00.097Z,11.23
2023-03-20T15:57:35.748Z,11.19
2023-03-20T16:00:07.439Z,11.15
2023-03-20T16:02:38.413Z,11.14
2023-03-20T16:05:12.809Z,11.13
2023-03-20T16:07:41.114Z,11.10
2023-03-20T16:10:19.408Z,11.08
2023-03-20T16:12:50.542Z,11.08
2023-03-20T16:15:20.482Z,11.01
2023-03-20T16:17:53.514Z,11.03
2023-03-20T16:20:23.002Z,11.04
2023-03-20T16:22:53.625Z,11.02
2023-03-20T16:25:23.264Z,11.01
2023-03-20T16:27:52.801Z,10.95
2023-03-20T16:30:25.457Z,10.90
2023-03-20T16:32:59.324Z,10.87
2023-03-20T16:35:30.485Z,10.83
2023-03-20T16:38:01.290Z,10.80
2023-03-20T16:40:35.753Z,10.75
2023-03-20T16:43:08.522Z,10.71
2023-03-20T16:45:38.447Z,10.69
2023-03-20T16:48:26.544Z,10.71
2023-03-20T16:51:04.284Z,10.70
2023-03-20T16:53:41.476Z,10.68
2023-03-20T16:56:15.632Z,10.69
2023-03-20T16:58:46.901Z,10.70
2023-03-20T17:01:21.315Z,10.70
2023-03-20T17:03:53.306Z,10.70
2023-03-20T17:06:36.883Z,10.71
2023-03-20T17:09:18.965Z,10.73
2023-03-20T17:11:50.566Z,10.73
2023-03-20T17:14:18.969Z,10.69
2023-03-20T17:16:47.076Z,10.68
2023-03-20T17:19:17.659Z,10.65
2023-03-20T17:21:47.295Z,10.63
2023-03-20T17:24:16.416Z,10.61
2023-03-20T17:26:47.546Z,10.57
2023-03-20T17:29:16.988Z,10.55
2023-03-20T17:31:46.093Z,10.52
2023-03-20T17:34:15.337Z,10.44
2023-03-20T17:36:43.383Z,10.43
2023-03-20T17:39:18.897Z,10.40
2023-03-20T17:41:47.522Z,10.34
2023-03-20T17:44:16.927Z,10.31
2023-03-20T17:46:57.126Z,10.31
2023-03-20T17:49:28.042Z,10.27
2023-03-20T17:51:56.588Z,10.24
2023-03-20T17:54:24.622Z,10.21
2023-03-20T17:56:52.637Z,10.16
2023-03-20T17:59:22.366Z,10.17
2023-03-20T18:01:50.683Z,10.16
2023-03-20T18:04:19.769Z,10.13
2023-03-20T18:06:49.194Z,10.08
2023-03-20T18:09:17.522Z,10.07
2023-03-20T18:11:45.756Z,10.08
2023-03-20T18:14:17.948Z,10.06
2023-03-20T18:16:47.537Z,10.02
2023-03-20T18:19:24.554Z,10.02
2023-03-20T18:21:52.768Z,9.99
2023-03-20T18:24:21.137Z,9.97
2023-03-20T18:26:49.382Z,9.93
2023-03-20T18:29:17.898Z,9.94
2023-03-20T18:31:47.661Z,9.92
2023-03-20T18:34:15.704Z,9.89
2023-03-20T18:36:44.141Z,9.92
2023-03-20T18:39:18.542Z,9.93
2023-03-20T18:41:46.937Z,9.88
2023-03-20T18:44:15.805Z,9.90
2023-03-20T18:46:44.712Z,9.88
2023-03-20T18:49:17.374Z,9.85
2023-03-20T18:51:46.844Z,9.83
2023-03-20T18:54:14.818Z,9.82
2023-03-20T18:56:43.236Z,9.78
2023-03-20T18:59:13.927Z,9.76
2023-03-20T19:01:42.090Z,9.79
2023-03-20T19:04:10.304Z,9.78
2023-03-20T19:06:39.928Z,9.79
2023-03-20T19:09:08.002Z,9.76
2023-03-20T19:11:36.201Z,9.78
2023-03-20T19:14:04.633Z,9.78
2023-03-20T19:16:35.201Z,9.81
2023-03-20T19:19:05.404Z,9.81
2023-03-20T19:21:35.891Z,9.83
2023-03-20T19:24:07.398Z,9.85
2023-03-20T19:26:37.388Z,9.82
2023-03-20T19:29:09.068Z,9.85
2023-03-20T19:31:37.690Z,9.83
2023-03-20T19:34:06.808Z,9.82
2023-03-20T19:36:37.451Z,9.81
2023-03-20T19:39:09.043Z,9.81
2023-03-20T19:41:37.907Z,9.82
2023-03-20T19:44:06.608Z,9.81
2023-03-20T19:46:42.732Z,9.78
2023-03-20T19:49:19.648Z,9.82
2023-03-20T19:51:49.058Z,9.79
2023-03-20T19:54:18.691Z,9.81
2023-03-20T19:56:46.809Z,9.81
2023-03-20T19:59:16.744Z,9.75
2023-03-20T20:01:46.649Z,9.68
2023-03-20T20:04:15.398Z,9.69
2023-03-20T20:06:43.481Z,9.71
2023-03-20T20:09:11.576Z,9.70
2023-03-20T20:11:41.010Z,9.71
2023-03-20T20:14:10.558Z,9.68
2023-03-20T20:16:43.145Z,9.69
2023-03-20T20:19:12.085Z,9.65
2023-03-20T20:24:28.677Z,9.65
2023-03-20T20:27:18.337Z,9.61
2023-03-20T20:29:49.164Z,9.59
2023-03-20T20:32:17.646Z,9.58
2023-03-20T20:38:21.229Z,9.54
2023-03-20T20:40:27.573Z,9.50
2023-03-20T20:43:02.174Z,9.48
2023-03-20T20:45:32.198Z,9.42
2023-03-20T20:48:01.170Z,9.41
2023-03-20T20:50:31.981Z,9.38
2023-03-20T20:53:00.650Z,9.35
2023-03-20T20:55:28.862Z,9.28
2023-03-20T20:57:56.904Z,9.22
2023-03-20T21:00:47.726Z,9.18
2023-03-20T21:03:15.925Z,9.17
2023-03-20T21:05:44.086Z,9.16
2023-03-20T21:08:14.141Z,9.08
2023-03-20T21:10:42.728Z,9.04
2023-03-20T21:13:10.746Z,9.02
2023-03-20T21:15:40.987Z,8.99
2023-03-20T21:18:09.271Z,8.94
2023-03-20T21:20:37.439Z,8.83
2023-03-20T21:23:06.224Z,8.76
2023-03-20T21:25:45.604Z,8.75
2023-03-20T21:28:15.426Z,8.62
2023-03-20T21:31:09.091Z,8.49
2023-03-20T21:33:34.744Z,8.43
2023-03-20T21:36:04.086Z,8.38
2023-03-20T21:39:06.707Z,8.30
2023-03-20T21:41:20.810Z,8.28
2023-03-20T21:43:49.788Z,8.21
2023-03-20T21:50:07.822Z,8.18
2023-03-20T21:58:18.437Z,8.10
2023-03-20T22:03:29.065Z,8.06
2023-03-20T22:23:42.720Z,7.74
2023-03-20T22:26:38.204Z,7.73
2023-03-20T22:29:29.085Z,7.71
2023-03-20T22:37:53.957Z,7.66
2023-03-20T22:40:44.465Z,7.67
2023-03-20T22:45:28.008Z,7.64
2023-03-20T22:47:59.700Z,7.63
2023-03-20T22:50:27.801Z,7.62
2023-03-20T22:52:57.490Z,7.64
2023-03-20T22:55:26.174Z,7.64
2023-03-20T22:58:06.313Z,7.61
2023-03-20T23:00:35.653Z,7.63
2023-03-20T23:03:19.620Z,7.62
2023-03-20T23:05:51.147Z,7.55
2023-03-20T23:08:20.750Z,7.53
2023-03-20T23:10:50.965Z,7.52
2023-03-20T23:13:20.355Z,7.50
2023-03-20T23:15:50.643Z,7.49
2023-03-20T23:18:19.137Z,7.45
2023-03-20T23:20:47.150Z,7.43
2023-03-20T23:23:15.467Z,7.38
2023-03-20T23:25:45.006Z,7.32
2023-03-20T23:28:13.080Z,7.25
2023-03-20T23:30:48.249Z,7.25
2023-03-20T23:33:20.318Z,7.23
2023-03-20T23:35:48.799Z,7.14
2023-03-20T23:38:17.760Z,7.11
2023-03-20T23:40:51.228Z,7.08
2023-03-20T23:43:19.777Z,7.05
2023-03-20T23:45:48.471Z,7.03
2023-03-20T23:48:17.798Z,7.04
2023-03-20T23:50:53.007Z,7.05
2023-03-20T23:53:22.019Z,7.00
2023-03-20T23:55:54.024Z,6.97
2023-03-20T23:58:23.128Z,6.96
